Terminal Aerodrome Forecast
Issued by NWS Mobile, AL

Home | Current Version | Previous Version | Text Only | Print | Product List | Glossary On
Versions: 1 2 3 4 5 6 7 8 9 10 11 12 13 14 15 16 17 18 19 20 21 22 23 24 25 26 27 28 29 30 31 32
000
FTUS44 KMOB 232001 AAA
TAFMOB
TAF AMD
KMOB 232001Z 2320/2418 07008KT P6SM VCTS SCT040CB SCT250
      TEMPO 2320/2324 VRB10G15KT 3SM -TSRA BR BKN040CB
     FM240300 04003KT P6SM SKC
     FM241200 07009KT 5SM BR FEW250=

USA.gov is the U.S. government's official web portal to all federal, state and local government web resources and services.